Monday, February 19, 2018, 5:09 AM EST
Back to Local

KVSF, Hartness State Airport

Location: Perkinsville, VT, United States Lat: 43.35
Local Time: 5:09 AM EST (10:09 GMT) Lon: -72.517
Time Zone: US/Eastern Elev: 577 ft

Show me the last for .
Show Decoded

2018-02-19 04:54 METAR KVSF 190954Z AUTO 00000KT 10SM CLR M11/M11 A3049 RMK AO2 SLP336 T11061111
                 =
2018-02-19 03:54 METAR KVSF 190854Z AUTO 00000KT 10SM CLR M09/M11 A3048 RMK AO2 SLP332 I1001
                 I3001 T10941111 51002 =
2018-02-19 02:54 METAR KVSF 190754Z AUTO 00000KT 10SM CLR M08/M09 A3048 RMK AO2 SLP331 I1000
                 T10831094 =
2018-02-19 01:54 METAR KVSF 190654Z AUTO 00000KT 10SM CLR M08/M09 A3048 RMK AO2 SLP332 I1000
                 T10781089 =
2018-02-19 00:54 METAR KVSF 190554Z AUTO 00000KT 10SM CLR M08/M09 A3048 RMK AO2 SLP329 I1000
                 I6000 T10781089 11028 21078 58003 =
2018-02-18 23:54 METAR KVSF 190454Z AUTO 00000KT 10SM CLR M07/M09 A3049 RMK AO2 SLP334 T10721089
                 400331078 =
2018-02-18 22:54 METAR KVSF 190354Z AUTO 00000KT 10SM CLR M07/M08 A3049 RMK AO2 SLP333 T10721083
                 =
2018-02-18 21:54 METAR KVSF 190254Z AUTO 33003KT 10SM CLR M06/M08 A3049 RMK AO2 SLP333 T10561078
                 51026 =
2018-02-18 20:54 METAR KVSF 190154Z AUTO 00000KT 10SM CLR M06/M08 A3046 RMK AO2 SLP323 T10561078
                 =
2018-02-18 19:54 METAR KVSF 190054Z AUTO 00000KT 10SM CLR M04/M07 A3045 RMK AO2 SLP321 T10391072
                 =
2018-02-18 18:54 METAR KVSF 182354Z AUTO 00000KT 10SM CLR M03/M07 A3041 RMK AO2 SLP306 T10281072
                 10033 21028 51029 =
2018-02-18 17:54 METAR KVSF 182254Z AUTO 26004KT 10SM CLR 00/M08 A3039 RMK AO2 SLP299 T00001078 =
2018-02-18 16:54 METAR KVSF 182154Z AUTO 28005KT 10SM OVC046 03/M07 A3034 RMK AO2 SLP282
                 T00281067 =
2018-02-18 15:54 METAR KVSF 182054Z AUTO 28006KT 10SM OVC046 03/M07 A3032 RMK AO2 SLP274
                 T00281067 51037 =
2018-02-18 14:54 METAR KVSF 181954Z AUTO 27013G17KT 10SM OVC041 02/M07 A3029 RMK AO2 SLP265
                 T00221067 =
2018-02-18 13:54 METAR KVSF 181854Z AUTO 29012G22KT 270V330 10SM SCT041 02/M07 A3026 RMK AO2
                 SLP255 T00221067 =
2018-02-18 12:54 METAR KVSF 181754Z AUTO 28014G21KT 10SM FEW041 03/M06 A3021 RMK AO2 SLP237 60000
                 I6000 T00281061 10028 21017 51008 =
2018-02-18 11:54 METAR KVSF 181654Z AUTO 32010G22KT 280V350 10SM FEW040 02/M07 A3020 RMK AO2
                 RAB07E17 SLP234 P0000 T00171067 =
2018-02-18 10:54 METAR KVSF 181554Z AUTO 31012G20KT 10SM FEW039 02/M06 A3021 RMK AO2
                 RAB1458E14B44E54 SLP237 P0000 T00171061 =
2018-02-18 09:54 METAR KVSF 181454Z AUTO 31011G20KT 10SM CLR 01/M06 A3018 RMK AO2 PK WND
                 27028/1420 SLP229 60000 I3000 T00061061 51054 =
2018-02-18 08:54 METAR KVSF 181354Z AUTO 29012G19KT 10SM SCT027 OVC039 M01/M04 A3015 RMK AO2
                 SNE41 SLP216 P0000 T10061044 =
2018-02-18 08:47 METAR KVSF 181347Z AUTO 30011G21KT 8SM BKN027 OVC039 M01/M04 A3014 RMK AO2 SNE41
                 P0000 T10061044 =
2018-02-18 08:33 METAR KVSF 181333Z AUTO 28008G18KT 3SM -SN FEW024 SCT032 OVC041 M01/M04 A3013
                 RMK AO2 P0000 T10061039 =
2018-02-18 08:26 METAR KVSF 181326Z AUTO VRB06G16KT 1 3/4SM -SN FEW024 BKN034 OVC044 M01/M04
                 A3012 RMK AO2 P0000 T10061039 =
2018-02-18 08:17 METAR KVSF 181317Z AUTO 31010G18KT 280V340 1 1/2SM -SN FEW021 BKN029 OVC046
                 M01/M04 A3011 RMK AO2 P0000 T10061039 =
2018-02-18 08:12 METAR KVSF 181312Z AUTO 29010G18KT 2SM -SN SCT026 BKN036 OVC046 M01/M03 A3011
                 RMK AO2 P0000 T10061033 =
2018-02-18 08:05 METAR KVSF 181305Z AUTO 29007G16KT 1 3/4SM -SN FEW026 BKN032 OVC043 M01/M03
                 A3010 RMK AO2 PRESRR P0000 T10061033 =
2018-02-18 07:54 METAR KVSF 181254Z AUTO 30007G18KT 270V340 4SM -SN FEW026 SCT032 BKN040 00/M03
                 A3008 RMK AO2 SNB48 SLP195 P0000 I1000 T00001033 =
2018-02-18 06:54 METAR KVSF 181154Z AUTO VRB05KT 8SM FEW029 M02/M04 A3002 RMK AO2 SNE27 SLP174
                 P0000 60006 70012 T10171039 11017 21039 53028 =
2018-02-18 05:54 METAR KVSF 181054Z AUTO 00000KT 3SM -SN BR OVC055 M03/M03 A2999 RMK AO2 SLP164
                 P0000 T10331033 =
2018-02-18 05:41 METAR KVSF 181041Z AUTO 00000KT 3SM -SN BR BKN049 OVC065 M03/M03 A2998 RMK AO2
                 P0000 T10281028 =

Support USWX by starting your Amazon purchase here.